createdAt,value
2023-01-28T00:01:49.541Z,3.20
2023-01-28T00:04:18.481Z,3.30
2023-01-28T00:06:46.176Z,3.30
2023-01-28T00:09:14.084Z,3.30
2023-01-28T00:11:42.146Z,3.40
2023-01-28T00:14:12.332Z,3.40
2023-01-28T00:16:41.352Z,3.40
2023-01-28T00:19:09.229Z,3.20
2023-01-28T00:21:36.958Z,3.30
2023-01-28T00:24:06.835Z,3.30
2023-01-28T00:26:34.561Z,3.20
2023-01-28T00:29:03.865Z,3.20
2023-01-28T00:31:31.677Z,3.30
2023-01-28T00:34:02.612Z,3.20
2023-01-28T00:36:30.571Z,3.20
2023-01-28T00:39:00.050Z,3.20
2023-01-28T00:41:29.538Z,3.20
2023-01-28T00:43:59.867Z,3.20
2023-01-28T00:46:27.760Z,3.20
2023-01-28T00:48:55.816Z,3.20
2023-01-28T00:51:24.817Z,3.30
2023-01-28T00:53:52.849Z,3.30
2023-01-28T00:56:20.952Z,3.30
2023-01-28T00:58:49.020Z,3.30
2023-01-28T01:01:18.426Z,3.20
2023-01-28T01:03:46.569Z,3.20
2023-01-28T01:06:16.665Z,3.30
2023-01-28T01:08:50.474Z,3.40
2023-01-28T01:11:20.238Z,3.30
2023-01-28T01:13:52.157Z,3.30
2023-01-28T01:16:19.937Z,3.30
2023-01-28T01:18:50.016Z,3.30
2023-01-28T01:21:20.000Z,3.40
2023-01-28T01:23:49.251Z,3.40
2023-01-28T01:26:17.298Z,3.50
2023-01-28T01:28:45.464Z,3.30
2023-01-28T01:31:16.309Z,3.30
2023-01-28T01:33:45.639Z,3.40
2023-01-28T01:36:15.159Z,3.40
2023-01-28T01:38:43.064Z,3.50
2023-01-28T01:41:26.609Z,3.60
2023-01-28T01:43:56.717Z,3.60
2023-01-28T01:46:30.975Z,3.60
2023-01-28T01:49:08.792Z,3.60
2023-01-28T01:51:37.894Z,3.50
2023-01-28T01:54:06.311Z,3.50
2023-01-28T01:56:39.674Z,3.40
2023-01-28T01:59:11.902Z,3.30
2023-01-28T02:01:40.467Z,3.30
2023-01-28T02:04:13.921Z,3.30
2023-01-28T02:06:42.859Z,3.40
2023-01-28T02:09:23.922Z,3.40
2023-01-28T02:11:54.878Z,3.30
2023-01-28T02:14:30.982Z,3.20
2023-01-28T02:16:59.817Z,3.20
2023-01-28T02:19:40.473Z,3.20
2023-01-28T02:22:26.427Z,3.30
2023-01-28T02:25:05.753Z,3.40
2023-01-28T02:27:41.005Z,3.30
2023-01-28T02:30:16.696Z,3.50
2023-01-28T02:32:52.586Z,3.60
2023-01-28T02:35:30.023Z,3.50
2023-01-28T02:38:04.902Z,3.40
2023-01-28T02:40:58.551Z,3.40
2023-01-28T02:43:35.822Z,3.40
2023-01-28T02:46:29.072Z,3.40
2023-01-28T02:49:00.049Z,3.50
2023-01-28T02:51:40.254Z,3.50
2023-01-28T02:54:14.456Z,3.50
2023-01-28T02:56:50.827Z,3.40
2023-01-28T02:59:31.791Z,3.40
2023-01-28T03:02:10.413Z,3.50
2023-01-28T03:04:45.400Z,3.50
2023-01-28T03:07:15.832Z,3.50
2023-01-28T03:09:47.664Z,3.50
2023-01-28T03:12:34.058Z,3.40
2023-01-28T03:15:19.827Z,3.50
2023-01-28T03:18:10.290Z,3.50
2023-01-28T03:20:58.554Z,3.40
2023-01-28T03:23:50.018Z,3.50
2023-01-28T03:26:35.997Z,3.40
2023-01-28T03:29:24.360Z,3.40
2023-01-28T03:32:07.695Z,3.50
2023-01-28T03:34:54.511Z,3.50
2023-01-28T03:37:22.781Z,3.50
2023-01-28T03:40:05.243Z,3.50
2023-01-28T03:42:34.247Z,3.50
2023-01-28T03:45:10.478Z,3.60
2023-01-28T03:47:40.498Z,3.70
2023-01-28T03:50:12.434Z,3.60
2023-01-28T03:52:52.718Z,3.60
2023-01-28T03:55:29.135Z,3.60
2023-01-28T03:57:56.871Z,3.60
2023-01-28T04:00:24.677Z,3.60
2023-01-28T04:02:53.166Z,3.60
2023-01-28T04:05:23.490Z,3.60
2023-01-28T04:07:52.684Z,3.50
2023-01-28T04:10:32.840Z,3.50
2023-01-28T04:13:11.858Z,3.50
2023-01-28T04:15:43.865Z,3.40
2023-01-28T04:18:12.457Z,3.30
2023-01-28T04:20:41.961Z,3.30
2023-01-28T04:23:09.810Z,3.30
2023-01-28T04:25:38.293Z,3.30
2023-01-28T04:28:08.966Z,3.30
2023-01-28T04:30:36.853Z,3.40
2023-01-28T04:33:24.605Z,3.30
2023-01-28T04:36:02.127Z,3.40
2023-01-28T04:38:37.846Z,3.40
2023-01-28T04:41:11.906Z,3.40
2023-01-28T04:43:39.728Z,3.50
2023-01-28T04:46:24.548Z,3.50
2023-01-28T04:48:56.824Z,3.40
2023-01-28T04:51:45.832Z,3.50
2023-01-28T04:54:33.471Z,3.50
2023-01-28T04:57:04.203Z,3.50
2023-01-28T04:59:32.927Z,3.50
2023-01-28T05:02:00.856Z,3.50
2023-01-28T05:04:28.786Z,3.60
2023-01-28T05:06:59.362Z,3.50
2023-01-28T05:09:33.832Z,3.50
2023-01-28T05:12:01.840Z,3.50
2023-01-28T05:14:32.021Z,3.50
2023-01-28T05:17:06.297Z,3.50
2023-01-28T05:19:34.233Z,3.50
2023-01-28T05:22:05.127Z,3.40
2023-01-28T05:24:38.965Z,3.40
2023-01-28T05:27:07.399Z,3.40
2023-01-28T05:29:35.304Z,3.40
2023-01-28T05:32:03.043Z,3.40
2023-01-28T05:34:31.602Z,3.40
2023-01-28T05:37:05.557Z,3.40
2023-01-28T05:39:36.573Z,3.30
2023-01-28T05:42:04.811Z,3.20
2023-01-28T05:44:34.877Z,3.20
2023-01-28T05:47:22.521Z,3.20
2023-01-28T05:49:56.159Z,3.20
2023-01-28T05:52:34.857Z,3.30
2023-01-28T05:55:03.919Z,3.30
2023-01-28T05:57:32.078Z,3.40
2023-01-28T06:00:00.116Z,3.50
2023-01-28T06:02:28.080Z,3.50
2023-01-28T06:04:59.456Z,3.50
2023-01-28T06:07:27.296Z,3.50
2023-01-28T06:09:56.403Z,3.50
2023-01-28T06:12:24.388Z,3.50
2023-01-28T06:15:12.587Z,3.60
2023-01-28T06:17:59.065Z,3.50
2023-01-28T06:20:30.377Z,3.60
2023-01-28T06:22:59.219Z,3.60
2023-01-28T06:25:28.365Z,3.60
2023-01-28T06:28:00.568Z,3.60
2023-01-28T06:30:28.297Z,3.50
2023-01-28T06:32:56.859Z,3.50
2023-01-28T06:35:24.624Z,3.50
2023-01-28T06:37:53.123Z,3.50
2023-01-28T06:40:22.779Z,3.50
2023-01-28T06:42:51.755Z,3.50
2023-01-28T06:45:19.923Z,3.50
2023-01-28T06:47:47.667Z,3.50
2023-01-28T06:50:15.844Z,3.50
2023-01-28T06:52:43.732Z,3.40
2023-01-28T06:55:11.733Z,3.50
2023-01-28T06:57:40.035Z,3.50
2023-01-28T07:00:12.267Z,3.40
2023-01-28T07:02:40.832Z,3.50
2023-01-28T07:05:09.014Z,3.40
2023-01-28T07:07:36.878Z,3.40
2023-01-28T07:10:06.135Z,3.30
2023-01-28T07:12:33.863Z,3.40
2023-01-28T07:15:01.612Z,3.40
2023-01-28T07:17:30.742Z,3.30
2023-01-28T07:19:58.513Z,3.30
2023-01-28T07:22:26.213Z,3.30
2023-01-28T07:24:53.929Z,3.30
2023-01-28T07:27:21.688Z,3.30
2023-01-28T07:29:56.040Z,3.30
2023-01-28T07:32:27.395Z,3.30
2023-01-28T07:34:56.478Z,3.20
2023-01-28T07:37:24.402Z,3.30
2023-01-28T07:39:52.258Z,3.30
2023-01-28T07:42:20.024Z,3.40
2023-01-28T07:44:49.433Z,3.50
2023-01-28T07:47:17.272Z,3.50
2023-01-28T07:49:44.960Z,3.50
2023-01-28T07:52:15.008Z,3.60
2023-01-28T07:54:42.925Z,3.60
2023-01-28T07:57:10.793Z,3.60
2023-01-28T07:59:38.706Z,3.60
2023-01-28T08:02:06.415Z,3.70
2023-01-28T08:04:34.546Z,3.70
2023-01-28T08:07:02.546Z,3.60
2023-01-28T08:09:34.112Z,3.70
2023-01-28T08:12:03.309Z,3.70
2023-01-28T08:14:31.045Z,3.70
2023-01-28T08:16:58.950Z,3.70
2023-01-28T08:19:26.665Z,3.80
2023-01-28T08:21:54.390Z,3.80
2023-01-28T08:24:22.382Z,3.90
2023-01-28T08:26:51.461Z,3.90
2023-01-28T08:29:19.286Z,3.90
2023-01-28T08:31:47.101Z,4.00
2023-01-28T08:34:14.865Z,4.00
2023-01-28T08:36:42.584Z,4.10
2023-01-28T08:39:10.314Z,4.10
2023-01-28T08:41:37.987Z,4.20
2023-01-28T08:44:09.642Z,4.30
2023-01-28T08:46:37.394Z,4.30
2023-01-28T08:49:05.099Z,4.40
2023-01-28T08:51:32.855Z,4.40
2023-01-28T08:54:00.764Z,4.40
2023-01-28T08:56:28.990Z,4.50
2023-01-28T08:58:59.127Z,4.60
2023-01-28T09:01:30.557Z,4.60
2023-01-28T09:03:58.422Z,4.50
2023-01-28T09:06:26.207Z,4.50
2023-01-28T09:08:54.092Z,4.40
2023-01-28T09:11:21.923Z,4.30
2023-01-28T09:13:49.811Z,4.30
2023-01-28T09:16:17.508Z,4.40
2023-01-28T09:18:48.191Z,4.30
2023-01-28T09:21:15.999Z,4.30
2023-01-28T09:23:43.759Z,4.30
2023-01-28T09:26:11.790Z,4.20
2023-01-28T09:28:40.159Z,4.30
2023-01-28T09:31:10.150Z,4.10
2023-01-28T09:33:40.740Z,4.20
2023-01-28T09:36:15.311Z,4.30
2023-01-28T09:38:44.810Z,4.30
2023-01-28T09:41:25.935Z,4.40
2023-01-28T09:44:04.406Z,4.40
2023-01-28T09:46:35.897Z,4.50
2023-01-28T09:49:19.045Z,4.40
2023-01-28T09:51:53.172Z,4.40
2023-01-28T09:54:31.189Z,4.50
2023-01-28T09:57:06.953Z,4.40
2023-01-28T09:59:37.065Z,4.40
2023-01-28T10:02:26.917Z,4.40
2023-01-28T10:05:03.991Z,4.40
2023-01-28T10:07:42.610Z,4.50
2023-01-28T10:10:17.644Z,4.50
2023-01-28T10:13:02.247Z,4.70
2023-01-28T10:15:49.143Z,4.70
2023-01-28T10:18:18.982Z,4.60
2023-01-28T10:20:49.512Z,4.70
2023-01-28T10:23:23.063Z,4.80
2023-01-28T10:25:50.810Z,4.70
2023-01-28T10:28:22.035Z,4.70
2023-01-28T10:30:50.414Z,4.70
2023-01-28T10:33:21.801Z,4.80
2023-01-28T10:35:50.311Z,4.70
2023-01-28T10:38:22.732Z,4.80
2023-01-28T10:40:51.299Z,4.80
2023-01-28T10:43:23.599Z,4.80
2023-01-28T10:45:59.480Z,4.70
2023-01-28T10:48:31.362Z,4.70
2023-01-28T10:51:01.968Z,4.50
2023-01-28T10:53:37.784Z,4.60
2023-01-28T10:56:08.447Z,4.60
2023-01-28T10:58:48.194Z,4.50
2023-01-28T11:01:15.973Z,4.40
2023-01-28T11:03:55.907Z,4.50
2023-01-28T11:06:26.739Z,4.40
2023-01-28T11:08:56.066Z,4.40
2023-01-28T11:11:27.597Z,4.40
2023-01-28T11:13:58.477Z,4.30
2023-01-28T11:16:27.335Z,4.40
2023-01-28T11:19:01.053Z,4.40
2023-01-28T11:21:32.314Z,4.50
2023-01-28T11:24:03.660Z,4.40
2023-01-28T11:26:38.211Z,4.40
2023-01-28T11:29:07.013Z,4.40
2023-01-28T11:31:43.129Z,4.40
2023-01-28T11:34:18.556Z,4.30
2023-01-28T11:36:52.174Z,4.40
2023-01-28T11:39:25.958Z,4.50
2023-01-28T11:41:54.300Z,4.60
2023-01-28T11:44:24.350Z,4.50
2023-01-28T11:47:06.497Z,4.50
2023-01-28T11:49:46.815Z,4.60
2023-01-28T11:52:22.884Z,4.60
2023-01-28T11:55:02.973Z,4.60
2023-01-28T11:57:40.017Z,4.50
2023-01-28T12:00:27.843Z,4.50
2023-01-28T12:03:10.994Z,4.60
2023-01-28T12:05:50.126Z,4.50
2023-01-28T12:08:24.686Z,4.60
2023-01-28T12:11:16.086Z,4.70
2023-01-28T12:13:55.220Z,4.70
2023-01-28T12:16:36.072Z,4.80
2023-01-28T12:19:24.170Z,4.90
2023-01-28T12:22:09.097Z,4.80
2023-01-28T12:24:49.248Z,4.70
2023-01-28T12:27:30.371Z,4.50
2023-01-28T12:30:15.146Z,4.40
2023-01-28T12:32:58.899Z,4.40
2023-01-28T12:35:43.446Z,4.40
2023-01-28T12:38:17.084Z,4.50
2023-01-28T12:40:56.155Z,4.50
2023-01-28T12:43:38.366Z,4.40
2023-01-28T12:46:13.646Z,4.30
2023-01-28T12:48:48.232Z,4.20
2023-01-28T12:51:20.759Z,4.20
2023-01-28T12:53:56.271Z,4.20
2023-01-28T12:56:30.170Z,4.10
2023-01-28T12:59:04.895Z,4.10
2023-01-28T13:01:42.702Z,4.10
2023-01-28T13:04:14.786Z,4.20
2023-01-28T13:06:48.154Z,4.30
2023-01-28T13:09:20.707Z,4.10
2023-01-28T13:11:51.717Z,4.10
2023-01-28T13:14:24.486Z,4.00
2023-01-28T13:16:52.292Z,4.10
2023-01-28T13:19:26.190Z,4.20
2023-01-28T13:21:54.051Z,4.20
2023-01-28T13:24:25.180Z,4.20
2023-01-28T13:26:55.300Z,4.20
2023-01-28T13:29:31.709Z,4.20
2023-01-28T13:32:01.932Z,4.20
2023-01-28T13:34:34.384Z,4.20
2023-01-28T13:37:07.026Z,4.20
2023-01-28T13:39:36.752Z,4.10
2023-01-28T13:42:23.938Z,4.10
2023-01-28T13:44:53.309Z,4.30
2023-01-28T13:47:28.104Z,4.40
2023-01-28T13:49:58.882Z,4.50
2023-01-28T13:52:30.007Z,4.50
2023-01-28T13:55:02.544Z,4.60
2023-01-28T13:57:48.667Z,4.60
2023-01-28T14:00:26.897Z,4.60
2023-01-28T14:03:17.797Z,4.50
2023-01-28T14:06:19.023Z,4.50
2023-01-28T14:09:06.012Z,4.50
2023-01-28T14:12:00.120Z,4.50
2023-01-28T14:14:41.548Z,4.50
2023-01-28T14:17:22.185Z,4.60
2023-01-28T14:19:54.151Z,4.60
2023-01-28T14:22:22.694Z,4.50
2023-01-28T14:24:50.894Z,4.50
2023-01-28T14:27:23.342Z,4.40
2023-01-28T14:30:04.162Z,4.30
2023-01-28T14:32:35.159Z,4.40
2023-01-28T14:35:10.151Z,4.40
2023-01-28T14:37:40.028Z,4.40
2023-01-28T14:40:14.559Z,4.50
2023-01-28T14:42:45.570Z,4.40
2023-01-28T14:45:26.072Z,4.30
2023-01-28T14:48:16.218Z,4.30
2023-01-28T14:51:00.839Z,4.30
2023-01-28T14:53:43.415Z,4.30
2023-01-28T14:56:22.491Z,4.30
2023-01-28T14:58:53.695Z,4.40
2023-01-28T15:01:23.537Z,4.50
2023-01-28T15:03:53.486Z,4.60
2023-01-28T15:06:24.137Z,4.70
2023-01-28T15:08:54.221Z,4.80
2023-01-28T15:11:24.847Z,4.70
2023-01-28T15:13:55.771Z,4.80
2023-01-28T15:16:30.148Z,4.70
2023-01-28T15:19:02.531Z,4.70
2023-01-28T15:21:33.291Z,4.70
2023-01-28T15:24:03.038Z,4.60
2023-01-28T15:26:35.063Z,4.50
2023-01-28T15:29:04.106Z,4.50
2023-01-28T15:31:33.985Z,4.50
2023-01-28T15:34:05.750Z,4.40
2023-01-28T15:36:33.899Z,4.50
2023-01-28T15:39:01.683Z,4.40
2023-01-28T15:41:33.680Z,4.30
2023-01-28T15:44:01.650Z,4.30
2023-01-28T15:46:29.422Z,4.30
2023-01-28T15:49:00.710Z,4.30
2023-01-28T15:51:31.927Z,4.30
2023-01-28T15:54:01.791Z,4.40
2023-01-28T15:56:31.607Z,4.40
2023-01-28T15:59:17.925Z,4.40
2023-01-28T16:01:47.173Z,4.40
2023-01-28T16:04:24.608Z,4.30
2023-01-28T16:06:55.820Z,4.30
2023-01-28T16:09:27.693Z,4.30
2023-01-28T16:12:01.909Z,4.20
2023-01-28T16:14:32.409Z,4.20
2023-01-28T16:17:00.329Z,4.30
2023-01-28T16:19:35.813Z,4.10
2023-01-28T16:22:05.760Z,4.20
2023-01-28T16:24:36.105Z,4.20
2023-01-28T16:27:06.785Z,4.00
2023-01-28T16:29:34.507Z,4.10
2023-01-28T16:32:03.533Z,4.20
2023-01-28T16:34:31.336Z,4.10
2023-01-28T16:37:00.347Z,4.20
2023-01-28T16:39:29.875Z,4.30
2023-01-28T16:41:57.811Z,4.20
2023-01-28T16:44:25.539Z,4.20
2023-01-28T16:46:53.356Z,4.30
2023-01-28T16:49:21.175Z,4.30
2023-01-28T16:51:48.861Z,4.20
2023-01-28T16:54:17.755Z,4.30
2023-01-28T16:56:47.196Z,4.30
2023-01-28T16:59:16.626Z,4.30
2023-01-28T17:01:45.153Z,4.30
2023-01-28T17:04:14.141Z,4.30
2023-01-28T17:06:44.115Z,4.40
2023-01-28T17:09:12.893Z,4.50
2023-01-28T17:11:41.003Z,4.50
2023-01-28T17:14:10.776Z,4.40
2023-01-28T17:16:39.150Z,4.40
2023-01-28T17:19:07.480Z,4.30
2023-01-28T17:21:35.349Z,4.30
2023-01-28T17:24:03.481Z,4.40
2023-01-28T17:26:31.785Z,4.40
2023-01-28T17:28:59.444Z,4.40
2023-01-28T17:31:28.531Z,4.40
2023-01-28T17:33:58.482Z,4.30
2023-01-28T17:36:27.542Z,4.30
2023-01-28T17:38:56.141Z,4.30
2023-01-28T17:41:24.077Z,4.30
2023-01-28T17:43:52.276Z,4.30
2023-01-28T17:46:20.490Z,4.20
2023-01-28T17:48:52.007Z,4.20
2023-01-28T17:51:19.694Z,4.10
2023-01-28T17:53:48.173Z,4.10
2023-01-28T17:56:17.807Z,4.10
2023-01-28T17:58:49.182Z,4.00
2023-01-28T18:01:18.744Z,4.00
2023-01-28T18:03:49.152Z,4.00
2023-01-28T18:06:18.427Z,4.00
2023-01-28T18:08:46.395Z,4.00
2023-01-28T18:11:16.538Z,3.90
2023-01-28T18:13:44.524Z,3.90
2023-01-28T18:16:17.989Z,4.00
2023-01-28T18:18:46.317Z,4.10
2023-01-28T18:21:46.493Z,4.10
2023-01-28T18:24:18.769Z,4.10
2023-01-28T18:26:46.522Z,4.10
2023-01-28T18:29:16.581Z,4.00
2023-01-28T18:31:44.484Z,3.90
2023-01-28T18:34:12.295Z,3.80
2023-01-28T18:36:42.594Z,3.90
2023-01-28T18:39:12.544Z,3.90
2023-01-28T18:41:40.398Z,3.90
2023-01-28T18:44:09.789Z,4.00
2023-01-28T18:46:37.522Z,4.00
2023-01-28T18:49:05.593Z,4.00
2023-01-28T18:51:33.437Z,4.00
2023-01-28T18:54:04.346Z,4.00
2023-01-28T18:56:34.062Z,4.00
2023-01-28T18:59:05.429Z,3.90
2023-01-28T19:01:35.166Z,3.90
2023-01-28T19:04:03.554Z,3.90
2023-01-28T19:06:32.957Z,3.90
2023-01-28T19:09:05.831Z,3.90
2023-01-28T19:11:35.613Z,4.00
2023-01-28T19:14:03.431Z,3.90
2023-01-28T19:16:31.422Z,4.00
2023-01-28T19:19:00.940Z,3.90
2023-01-28T19:21:30.285Z,4.00
2023-01-28T19:24:00.332Z,3.90
2023-01-28T19:26:32.197Z,3.90
2023-01-28T19:29:00.213Z,3.80
2023-01-28T19:31:28.393Z,3.80
2023-01-28T19:33:58.188Z,3.80
2023-01-28T19:36:27.388Z,3.80
2023-01-28T19:38:58.159Z,3.80
2023-01-28T19:41:28.610Z,3.80
2023-01-28T19:43:58.429Z,3.80
2023-01-28T19:46:26.512Z,3.80
2023-01-28T19:48:54.448Z,3.80
2023-01-28T19:51:22.723Z,3.80
2023-01-28T19:53:52.136Z,3.80
2023-01-28T19:56:21.470Z,3.80
2023-01-28T19:58:49.369Z,3.80
2023-01-28T20:01:22.484Z,3.80
2023-01-28T20:03:52.508Z,3.80
2023-01-28T20:06:20.407Z,3.80
2023-01-28T20:08:53.205Z,3.80
2023-01-28T20:11:21.031Z,3.80
2023-01-28T20:13:50.455Z,3.80
2023-01-28T20:16:21.401Z,3.90
2023-01-28T20:18:51.614Z,3.80
2023-01-28T20:21:24.345Z,3.80
2023-01-28T20:23:54.286Z,3.80
2023-01-28T20:26:24.692Z,3.70
2023-01-28T20:28:52.903Z,3.80
2023-01-28T20:31:21.989Z,3.80
2023-01-28T20:33:49.801Z,3.70
2023-01-28T20:36:17.562Z,3.60
2023-01-28T20:38:47.201Z,3.60
2023-01-28T20:41:16.912Z,3.50
2023-01-28T20:43:45.880Z,3.40
2023-01-28T20:46:16.748Z,3.40
2023-01-28T20:48:46.343Z,3.30
2023-01-28T20:51:21.009Z,3.20
2023-01-28T20:53:49.375Z,3.20
2023-01-28T20:56:19.660Z,3.20
2023-01-28T20:58:49.150Z,3.20
2023-01-28T21:01:19.051Z,3.20
2023-01-28T21:03:48.962Z,3.20
2023-01-28T21:06:17.113Z,3.20
2023-01-28T21:08:45.899Z,3.20
2023-01-28T21:11:14.138Z,3.20
2023-01-28T21:13:42.250Z,3.20
2023-01-28T21:16:13.776Z,3.20
2023-01-28T21:18:41.463Z,3.20
2023-01-28T21:21:19.160Z,3.20
2023-01-28T21:23:46.965Z,3.10
2023-01-28T21:26:15.879Z,3.00
2023-01-28T21:28:43.842Z,3.00
2023-01-28T21:31:15.150Z,3.00
2023-01-28T21:33:43.120Z,3.00
2023-01-28T21:36:14.132Z,3.10
2023-01-28T21:38:44.542Z,3.20
2023-01-28T21:41:12.221Z,3.10
2023-01-28T21:43:40.111Z,3.20
2023-01-28T21:46:07.907Z,3.20
2023-01-28T21:48:35.636Z,3.20
2023-01-28T21:51:21.193Z,3.20
2023-01-28T21:53:50.323Z,3.30
2023-01-28T21:56:18.034Z,3.20
2023-01-28T21:58:59.703Z,3.20
2023-01-28T22:01:27.402Z,3.20
2023-01-28T22:03:55.101Z,3.20
2023-01-28T22:06:22.737Z,3.30
2023-01-28T22:08:53.070Z,3.20
2023-01-28T22:11:21.239Z,3.20
2023-01-28T22:13:49.378Z,3.20
2023-01-28T22:16:18.104Z,3.20
2023-01-28T22:18:46.596Z,3.20
2023-01-28T22:21:16.649Z,3.20
2023-01-28T22:23:44.363Z,3.20
2023-01-28T22:26:13.552Z,3.20
2023-01-28T22:28:41.226Z,3.20
2023-01-28T22:31:10.640Z,3.20
2023-01-28T22:33:38.985Z,3.20
2023-01-28T22:36:08.580Z,3.20
2023-01-28T22:38:41.431Z,3.10
2023-01-28T22:41:10.388Z,3.20
2023-01-28T22:43:39.448Z,3.10
2023-01-28T22:46:08.014Z,3.10
2023-01-28T22:48:37.657Z,3.10
2023-01-28T22:51:09.321Z,3.10
2023-01-28T22:53:37.052Z,3.10
2023-01-28T22:56:05.088Z,3.10
2023-01-28T22:58:32.830Z,3.20
2023-01-28T23:01:02.305Z,3.00
2023-01-28T23:03:31.423Z,3.00
2023-01-28T23:06:00.360Z,3.00
2023-01-28T23:08:28.510Z,3.00
2023-01-28T23:10:57.624Z,3.10
2023-01-28T23:13:26.843Z,3.00
2023-01-28T23:16:11.093Z,3.10
2023-01-28T23:18:54.115Z,3.10
2023-01-28T23:21:38.242Z,3.10
2023-01-28T23:24:25.478Z,3.10
2023-01-28T23:26:54.657Z,3.20
2023-01-28T23:29:25.507Z,3.20
2023-01-28T23:31:55.668Z,3.20
2023-01-28T23:34:24.738Z,3.10
2023-01-28T23:36:52.439Z,3.20
2023-01-28T23:39:20.179Z,3.20
2023-01-28T23:41:47.868Z,3.20
2023-01-28T23:44:18.272Z,3.20
2023-01-28T23:46:46.194Z,3.20
2023-01-28T23:49:13.966Z,3.20
2023-01-28T23:51:44.366Z,3.20
2023-01-28T23:54:12.056Z,3.10
2023-01-28T23:56:40.109Z,3.20
2023-01-28T23:59:07.776Z,3.20
